createdAt,value
2019-01-18T00:00:55.220Z,8.15
2019-01-18T00:03:24.518Z,9.93
2019-01-18T00:05:53.784Z,8.78
2019-01-18T00:08:23.081Z,8.55
2019-01-18T00:10:52.341Z,7.70
2019-01-18T00:13:21.646Z,8.35
2019-01-18T00:15:51.038Z,7.55
2019-01-18T00:18:20.296Z,7.03
2019-01-18T00:20:49.602Z,7.92
2019-01-18T00:23:18.944Z,6.80
2019-01-18T00:25:48.285Z,6.40
2019-01-18T00:28:17.570Z,6.85
2019-01-18T00:30:46.871Z,6.55
2019-01-18T00:33:16.120Z,7.35
2019-01-18T00:35:45.395Z,7.50
2019-01-18T00:38:14.656Z,7.85
2019-01-18T00:40:43.933Z,6.70
2019-01-18T00:43:13.189Z,6.50
2019-01-18T00:45:42.506Z,7.40
2019-01-18T00:48:11.766Z,6.72
2019-01-18T00:50:41.063Z,7.00
2019-01-18T00:53:10.325Z,8.00
2019-01-18T00:55:39.588Z,7.80
2019-01-18T00:58:08.888Z,7.87
2019-01-18T01:00:38.260Z,7.60
2019-01-18T01:03:07.733Z,7.60
2019-01-18T01:05:36.991Z,8.15
2019-01-18T01:08:06.373Z,7.78
2019-01-18T01:10:35.623Z,8.30
2019-01-18T01:13:04.923Z,6.42
2019-01-18T01:15:34.192Z,7.45
2019-01-18T01:18:03.468Z,8.03
2019-01-18T01:20:32.737Z,7.30
2019-01-18T01:23:02.009Z,9.10
2019-01-18T01:25:31.274Z,8.30
2019-01-18T01:28:00.611Z,7.97
2019-01-18T01:30:29.891Z,8.83
2019-01-18T01:32:59.172Z,9.10
2019-01-18T01:35:28.445Z,10.98
2019-01-18T01:37:57.730Z,10.80
2019-01-18T01:40:28.728Z,12.70
2019-01-18T01:42:58.119Z,13.28
2019-01-18T01:45:27.373Z,15.08
2019-01-18T01:47:56.640Z,14.40
2019-01-18T01:50:27.172Z,16.67
2019-01-18T01:52:57.589Z,16.85
2019-01-18T01:55:26.871Z,17.48
2019-01-18T01:57:56.333Z,17.17
2019-01-18T02:00:27.752Z,18.82
2019-01-18T02:02:57.029Z,18.05
2019-01-18T02:05:26.308Z,17.57
2019-01-18T02:07:55.572Z,17.05
2019-01-18T02:10:25.044Z,18.73
2019-01-18T02:12:54.300Z,17.40
2019-01-18T02:15:25.800Z,18.52
2019-01-18T02:17:55.121Z,18.30
2019-01-18T02:20:25.771Z,17.55
2019-01-18T02:22:55.322Z,16.57
2019-01-18T02:25:24.598Z,16.15
2019-01-18T02:27:53.888Z,17.98
2019-01-18T02:30:25.649Z,18.25
2019-01-18T02:32:54.957Z,19.52
2019-01-18T02:35:24.339Z,16.10
2019-01-18T02:37:53.790Z,18.12
2019-01-18T02:40:23.450Z,17.12
2019-01-18T02:42:52.727Z,17.12
2019-01-18T02:45:23.413Z,16.87
2019-01-18T02:47:52.686Z,15.32
2019-01-18T02:50:21.952Z,16.42
2019-01-18T02:52:51.239Z,16.00
2019-01-18T02:55:20.757Z,16.60
2019-01-18T02:57:50.011Z,18.05
2019-01-18T03:00:21.270Z,16.15
2019-01-18T03:02:50.527Z,19.92
2019-01-18T03:05:21.877Z,17.95
2019-01-18T03:07:51.164Z,19.57
2019-01-18T03:10:22.522Z,21.62
2019-01-18T03:12:51.771Z,18.98
2019-01-18T03:15:21.077Z,20.95
2019-01-18T03:17:50.329Z,18.92
2019-01-18T03:20:19.971Z,18.55
2019-01-18T03:22:49.257Z,20.95
2019-01-18T03:25:24.161Z,17.75
2019-01-18T03:27:53.458Z,18.57
2019-01-18T03:30:22.709Z,17.23
2019-01-18T03:32:52.128Z,18.35
2019-01-18T03:35:22.292Z,18.17
2019-01-18T03:37:51.560Z,19.65
2019-01-18T03:40:21.166Z,17.45
2019-01-18T03:42:50.780Z,16.07
2019-01-18T03:45:20.530Z,18.02
2019-01-18T03:47:49.992Z,18.50
2019-01-18T03:50:21.446Z,18.07
2019-01-18T03:52:50.722Z,16.80
2019-01-18T03:55:20.008Z,17.25
2019-01-18T03:57:49.360Z,16.85
2019-01-18T04:00:26.869Z,14.10
2019-01-18T04:02:56.186Z,17.27
2019-01-18T04:05:25.604Z,17.17
2019-01-18T04:07:54.893Z,16.97
2019-01-18T04:10:24.361Z,15.58
2019-01-18T04:12:53.735Z,15.05
2019-01-18T04:15:23.933Z,13.00
2019-01-18T04:17:53.321Z,12.75
2019-01-18T04:20:22.836Z,13.15
2019-01-18T04:22:52.120Z,13.90
2019-01-18T04:25:23.909Z,13.45
2019-01-18T04:27:53.163Z,12.03
2019-01-18T04:30:22.846Z,12.80
2019-01-18T04:32:52.133Z,12.85
2019-01-18T04:35:21.912Z,11.50
2019-01-18T04:37:51.244Z,14.25
2019-01-18T04:40:24.540Z,12.85
2019-01-18T04:42:53.936Z,13.05
2019-01-18T04:45:23.380Z,13.08
2019-01-18T04:47:52.970Z,13.75
2019-01-18T04:50:23.868Z,12.13
2019-01-18T04:52:53.221Z,14.15
2019-01-18T04:55:22.485Z,13.65
2019-01-18T04:57:52.044Z,14.95
2019-01-18T05:00:23.328Z,15.65
2019-01-18T05:02:52.702Z,14.70
2019-01-18T05:05:22.068Z,14.10
2019-01-18T05:07:51.465Z,16.23
2019-01-18T05:10:21.726Z,17.42
2019-01-18T05:12:50.990Z,16.48
2019-01-18T05:15:22.384Z,14.20
2019-01-18T05:17:51.698Z,14.13
2019-01-18T05:20:20.987Z,16.02
2019-01-18T05:22:50.353Z,16.90
2019-01-18T05:25:19.654Z,16.00
2019-01-18T05:27:48.904Z,17.10
2019-01-18T05:30:26.460Z,15.50
2019-01-18T05:32:55.734Z,14.93
2019-01-18T05:35:25.040Z,17.02
2019-01-18T05:37:54.337Z,15.58
2019-01-18T05:40:23.843Z,15.40
2019-01-18T05:42:53.136Z,15.13
2019-01-18T05:45:22.679Z,16.40
2019-01-18T05:48:11.054Z,18.37
2019-01-18T05:50:40.339Z,16.85
2019-01-18T05:53:10.112Z,17.30
2019-01-18T05:55:39.387Z,16.15
2019-01-18T05:58:08.672Z,15.50
2019-01-18T06:00:55.011Z,16.70
2019-01-18T06:03:19.004Z,18.30
2019-01-18T06:05:48.460Z,17.30
2019-01-18T06:08:17.754Z,16.87
2019-01-18T06:10:47.024Z,15.95
2019-01-18T06:13:16.305Z,17.73
2019-01-18T06:15:45.571Z,17.20
2019-01-18T06:18:14.842Z,19.62
2019-01-18T06:20:44.201Z,17.70
2019-01-18T06:23:13.460Z,19.65
2019-01-18T06:25:42.802Z,18.48
2019-01-18T06:28:12.065Z,18.92
2019-01-18T06:30:41.366Z,21.07
2019-01-18T06:33:10.649Z,21.07
2019-01-18T06:35:39.961Z,21.07
2019-01-18T06:38:09.237Z,21.17
2019-01-18T06:40:38.543Z,18.55
2019-01-18T06:43:08.237Z,19.60
2019-01-18T06:45:37.491Z,19.67
2019-01-18T06:48:07.106Z,19.82
2019-01-18T06:50:36.368Z,21.87
2019-01-18T06:53:05.876Z,21.05
2019-01-18T06:55:35.145Z,21.15
2019-01-18T06:58:04.642Z,22.35
2019-01-18T07:00:35.013Z,20.70
2019-01-18T07:03:04.848Z,21.25
2019-01-18T07:05:34.119Z,20.97
2019-01-18T07:08:03.395Z,22.80
2019-01-18T07:10:32.672Z,23.92
2019-01-18T07:13:01.951Z,22.02
2019-01-18T07:15:31.225Z,24.77
2019-01-18T07:18:00.509Z,21.42
2019-01-18T07:20:29.763Z,23.60
2019-01-18T07:22:59.051Z,21.15
2019-01-18T07:25:32.198Z,25.75
2019-01-18T07:28:01.463Z,27.13
2019-01-18T07:30:41.351Z,27.42
2019-01-18T07:33:12.506Z,25.05
2019-01-18T07:35:41.811Z,25.02
2019-01-18T07:38:11.148Z,26.95
2019-01-18T07:40:40.421Z,24.80
2019-01-18T07:43:09.745Z,28.20
2019-01-18T07:45:39.037Z,27.82
2019-01-18T07:48:08.316Z,28.98
2019-01-18T07:50:37.612Z,29.32
2019-01-18T07:53:06.872Z,28.12
2019-01-18T07:55:36.210Z,27.35
2019-01-18T07:58:06.153Z,27.77
2019-01-18T08:00:35.408Z,30.62
2019-01-18T08:03:04.848Z,29.27
2019-01-18T08:05:34.109Z,30.10
2019-01-18T08:08:03.413Z,27.25
2019-01-18T08:10:32.705Z,25.00
2019-01-18T08:13:02.059Z,24.73
2019-01-18T08:15:31.371Z,26.00
2019-01-18T08:18:00.652Z,25.50
2019-01-18T08:20:31.302Z,25.83
2019-01-18T08:23:01.529Z,26.27
2019-01-18T08:25:30.805Z,24.07
2019-01-18T08:28:00.441Z,25.03
2019-01-18T08:30:31.087Z,24.43
2019-01-18T08:33:00.397Z,24.50
2019-01-18T08:35:30.787Z,25.47
2019-01-18T08:38:00.085Z,24.40
2019-01-18T08:40:31.752Z,23.83
2019-01-18T08:43:02.361Z,25.00
2019-01-18T08:45:37.537Z,26.33
2019-01-18T08:48:07.665Z,23.90
2019-01-18T08:50:38.249Z,28.03
2019-01-18T08:53:07.574Z,27.27
2019-01-18T08:55:36.887Z,27.23
2019-01-18T08:58:06.212Z,27.47
2019-01-18T09:00:35.700Z,28.10
2019-01-18T09:03:05.562Z,25.47
2019-01-18T09:05:34.877Z,26.63
2019-01-18T09:08:04.158Z,23.60
2019-01-18T09:10:33.770Z,26.53
2019-01-18T09:13:03.036Z,26.60
2019-01-18T09:15:32.316Z,26.43
2019-01-18T09:18:01.685Z,24.67
2019-01-18T09:20:31.120Z,24.43
2019-01-18T09:23:00.436Z,24.20
2019-01-18T09:25:29.706Z,24.80
2019-01-18T09:27:58.984Z,25.50
2019-01-18T09:30:32.254Z,24.23
2019-01-18T09:33:02.443Z,23.63
2019-01-18T09:35:32.158Z,21.30
2019-01-18T09:38:02.935Z,24.10
2019-01-18T09:40:33.227Z,21.17
2019-01-18T09:43:02.493Z,22.13
2019-01-18T09:45:31.784Z,22.80
2019-01-18T09:48:01.037Z,21.70
2019-01-18T09:50:32.101Z,21.90
2019-01-18T09:53:02.062Z,21.70
2019-01-18T09:55:31.312Z,21.13
2019-01-18T09:58:00.581Z,21.60
2019-01-18T10:00:31.902Z,19.80
2019-01-18T10:03:01.733Z,20.90
2019-01-18T10:05:31.938Z,21.50
2019-01-18T10:08:01.460Z,19.40
2019-01-18T10:10:30.729Z,19.73
2019-01-18T10:13:00.118Z,20.17
2019-01-18T10:15:35.285Z,17.90
2019-01-18T10:18:06.198Z,20.50
2019-01-18T10:20:35.594Z,17.37
2019-01-18T10:23:05.139Z,19.20
2019-01-18T10:25:34.416Z,20.20
2019-01-18T10:28:03.911Z,18.37
2019-01-18T10:30:33.181Z,18.67
2019-01-18T10:33:02.476Z,24.93
2019-01-18T10:35:31.796Z,20.03
2019-01-18T10:38:01.141Z,18.37
2019-01-18T10:40:30.422Z,17.00
2019-01-18T10:42:59.766Z,19.70
2019-01-18T10:45:29.049Z,19.67
2019-01-18T10:47:58.316Z,20.70
2019-01-18T10:50:32.752Z,17.77
2019-01-18T10:53:02.320Z,19.80
2019-01-18T10:55:31.585Z,18.47
2019-01-18T10:58:00.875Z,18.70
2019-01-18T11:00:33.217Z,20.17
2019-01-18T11:03:02.565Z,20.63
2019-01-18T11:05:31.822Z,18.40
2019-01-18T11:08:01.111Z,20.90
2019-01-18T11:10:30.393Z,18.23
2019-01-18T11:12:59.655Z,18.67
2019-01-18T11:15:30.513Z,19.93
2019-01-18T11:17:59.818Z,17.63
2019-01-18T11:20:38.075Z,19.17
2019-01-18T11:23:07.423Z,18.23
2019-01-18T11:25:36.715Z,25.27
2019-01-18T11:28:05.982Z,20.57
2019-01-18T11:30:35.373Z,18.10
2019-01-18T11:33:04.808Z,17.10
2019-01-18T11:35:34.101Z,17.90
2019-01-18T11:38:03.468Z,18.40
2019-01-18T11:40:32.737Z,17.93
2019-01-18T11:43:02.029Z,19.83
2019-01-18T11:45:31.310Z,17.53
2019-01-18T11:48:00.556Z,20.07
2019-01-18T11:50:29.841Z,19.20
2019-01-18T11:52:59.097Z,18.43
2019-01-18T11:55:28.421Z,15.60
2019-01-18T11:57:57.684Z,17.90
2019-01-18T12:00:27.669Z,16.97
2019-01-18T12:02:56.974Z,17.70
2019-01-18T12:05:26.502Z,13.90
2019-01-18T12:07:55.912Z,14.73
2019-01-18T12:10:27.470Z,15.10
2019-01-18T12:12:56.727Z,14.13
2019-01-18T12:15:26.030Z,15.50
2019-01-18T12:17:55.296Z,15.33
2019-01-18T12:20:26.812Z,17.80
2019-01-18T12:22:56.100Z,16.47
2019-01-18T12:25:25.362Z,17.43
2019-01-18T12:27:54.677Z,15.87
2019-01-18T12:30:26.978Z,14.90
2019-01-18T12:32:56.237Z,15.33
2019-01-18T12:35:25.513Z,14.57
2019-01-18T12:37:54.792Z,12.93
2019-01-18T12:40:24.077Z,10.73
2019-01-18T12:42:53.331Z,14.60
2019-01-18T12:45:23.816Z,11.83
2019-01-18T12:47:53.130Z,12.30
2019-01-18T12:50:25.360Z,12.67
2019-01-18T12:52:54.657Z,12.87
2019-01-18T12:55:24.012Z,12.37
2019-01-18T12:57:53.288Z,12.37
2019-01-18T13:00:22.993Z,12.30
2019-01-18T13:02:52.250Z,8.70
2019-01-18T13:05:24.729Z,10.23
2019-01-18T13:07:53.994Z,10.30
2019-01-18T13:10:23.282Z,10.37
2019-01-18T13:12:52.560Z,9.37
2019-01-18T13:15:28.717Z,9.37
2019-01-18T13:17:57.984Z,10.90
2019-01-18T13:20:27.272Z,10.60
2019-01-18T13:22:56.566Z,10.23
2019-01-18T13:25:25.832Z,9.27
2019-01-18T13:27:59.734Z,9.40
2019-01-18T13:30:26.369Z,11.30
2019-01-18T13:32:55.762Z,10.90
2019-01-18T13:35:25.061Z,9.60
2019-01-18T13:37:54.322Z,9.90
2019-01-18T13:40:23.656Z,11.17
2019-01-18T13:42:52.917Z,12.17
2019-01-18T13:45:24.415Z,9.87
2019-01-18T13:47:53.202Z,10.37
2019-01-18T13:50:22.491Z,8.10
2019-01-18T13:52:51.861Z,8.60
2019-01-18T13:55:23.719Z,8.67
2019-01-18T13:57:53.014Z,7.70
2019-01-18T14:00:22.400Z,8.90
2019-01-18T14:02:51.655Z,9.30
2019-01-18T14:05:20.933Z,8.30
2019-01-18T14:07:53.386Z,9.23
2019-01-18T14:10:23.820Z,9.63
2019-01-18T14:12:53.107Z,9.17
2019-01-18T14:15:23.238Z,9.20
2019-01-18T14:17:52.565Z,9.90
2019-01-18T14:20:22.290Z,9.00
2019-01-18T14:22:52.246Z,9.30
2019-01-18T14:25:21.597Z,9.13
2019-01-18T14:27:50.975Z,7.60
2019-01-18T14:30:22.596Z,8.90
2019-01-18T14:32:55.511Z,8.10
2019-01-18T14:35:23.136Z,8.60
2019-01-18T14:37:52.923Z,8.93
2019-01-18T14:40:22.222Z,7.90
2019-01-18T14:42:51.611Z,8.50
2019-01-18T14:45:24.247Z,7.80
2019-01-18T14:47:53.523Z,7.47
2019-01-18T14:50:22.790Z,9.00
2019-01-18T14:52:52.052Z,10.85
2019-01-18T14:55:21.330Z,8.90
2019-01-18T14:57:50.701Z,10.75
2019-01-18T15:00:26.165Z,11.35
2019-01-18T15:03:02.026Z,9.78
2019-01-18T15:05:26.419Z,10.95
2019-01-18T15:07:55.700Z,11.88
2019-01-18T15:10:24.992Z,13.45
2019-01-18T15:13:00.411Z,11.43
2019-01-18T15:15:29.674Z,10.70
2019-01-18T15:17:58.951Z,12.15
2019-01-18T15:20:29.813Z,11.30
2019-01-18T15:22:59.682Z,10.80
2019-01-18T15:25:28.956Z,11.50
2019-01-18T15:27:58.203Z,9.68
2019-01-18T15:30:29.016Z,14.18
2019-01-18T15:32:58.286Z,15.23
2019-01-18T15:35:33.079Z,16.42
2019-01-18T15:38:02.346Z,17.87
2019-01-18T15:40:33.738Z,20.25
2019-01-18T15:43:03.761Z,18.23
2019-01-18T15:45:33.032Z,19.87
2019-01-18T15:48:02.321Z,18.32
2019-01-18T15:50:33.926Z,18.65
2019-01-18T15:53:03.240Z,18.30
2019-01-18T15:55:32.520Z,18.20
2019-01-18T15:58:01.782Z,20.90
2019-01-18T16:00:33.305Z,20.85
2019-01-18T16:03:02.661Z,17.50
2019-01-18T16:05:31.941Z,20.90
2019-01-18T16:08:01.205Z,19.45
2019-01-18T16:10:30.502Z,19.70
2019-01-18T16:12:59.752Z,18.45
2019-01-18T16:15:53.631Z,19.57
2019-01-18T16:18:23.263Z,16.73
2019-01-18T16:20:52.599Z,17.02
2019-01-18T16:23:21.920Z,17.45
2019-01-18T16:25:51.172Z,18.85
2019-01-18T16:28:20.489Z,19.10
2019-01-18T16:30:49.879Z,19.37
2019-01-18T16:33:23.564Z,18.98
2019-01-18T16:35:50.188Z,16.67
2019-01-18T16:38:19.465Z,17.37
2019-01-18T16:40:48.741Z,17.00
2019-01-18T16:43:30.116Z,17.40
2019-01-18T16:45:59.388Z,15.78
2019-01-18T16:48:28.656Z,17.60
2019-01-18T16:50:57.929Z,17.23
2019-01-18T16:53:27.195Z,17.23
2019-01-18T16:55:56.466Z,18.23
2019-01-18T16:58:25.732Z,15.03
2019-01-18T17:00:56.330Z,18.32
2019-01-18T17:03:30.226Z,18.55
2019-01-18T17:05:56.582Z,16.85
2019-01-18T17:08:25.859Z,17.57
2019-01-18T17:10:55.114Z,16.60
2019-01-18T17:13:25.156Z,13.83
2019-01-18T17:15:54.404Z,16.10
2019-01-18T17:18:25.148Z,14.18
2019-01-18T17:20:54.450Z,16.27
2019-01-18T17:23:23.803Z,15.90
2019-01-18T17:25:53.065Z,16.90
2019-01-18T17:28:22.425Z,15.50
2019-01-18T17:30:51.765Z,17.30
2019-01-18T17:33:21.161Z,14.75
2019-01-18T17:36:30.925Z,16.15
2019-01-18T17:39:24.798Z,15.50
2019-01-18T17:42:24.001Z,15.50
2019-01-18T17:45:31.078Z,12.60
2019-01-18T17:48:37.509Z,16.60
2019-01-18T17:51:42.565Z,15.53
2019-01-18T17:55:11.200Z,17.80
2019-01-18T17:58:13.961Z,15.30
2019-01-18T18:01:30.361Z,15.20
2019-01-18T18:04:38.169Z,15.55
2019-01-18T18:07:44.700Z,15.45
2019-01-18T18:10:54.784Z,16.23
2019-01-18T18:14:01.695Z,15.40
2019-01-18T18:17:04.089Z,17.65
2019-01-18T18:20:32.796Z,16.40
2019-01-18T18:23:34.578Z,15.70
2019-01-18T18:26:32.461Z,16.57
2019-01-18T18:29:49.125Z,16.90
2019-01-18T18:32:55.080Z,15.60
2019-01-18T18:35:48.221Z,18.73
2019-01-18T18:38:55.700Z,17.27
2019-01-18T18:42:01.797Z,15.18
2019-01-18T18:45:17.105Z,15.13
2019-01-18T18:48:28.285Z,16.25
2019-01-18T18:51:53.476Z,15.83
2019-01-18T18:54:42.468Z,16.73
2019-01-18T18:57:40.110Z,15.65
2019-01-18T19:00:34.361Z,15.70
2019-01-18T19:03:48.947Z,17.75
2019-01-18T19:06:54.041Z,15.93
2019-01-18T19:10:13.336Z,15.58
2019-01-18T19:13:37.470Z,18.82
2019-01-18T19:17:00.311Z,17.05
2019-01-18T19:20:15.581Z,17.92
2019-01-18T19:23:43.982Z,17.45
2019-01-18T19:26:43.815Z,17.50
2019-01-18T19:29:56.232Z,17.77
2019-01-18T19:33:09.402Z,16.37
2019-01-18T19:36:12.555Z,16.05
2019-01-18T19:39:24.698Z,16.95
2019-01-18T19:42:27.480Z,20.35
2019-01-18T19:45:21.479Z,16.95
2019-01-18T19:48:27.573Z,18.55
2019-01-18T19:51:36.626Z,17.45
2019-01-18T19:54:56.431Z,17.48
2019-01-18T19:57:44.384Z,17.20
2019-01-18T20:00:36.745Z,15.93
2019-01-18T20:03:42.236Z,18.57
2019-01-18T20:06:54.327Z,16.62
2019-01-18T20:10:05.867Z,17.00
2019-01-18T20:13:29.373Z,17.17
2019-01-18T20:16:35.441Z,17.60
2019-01-18T20:19:34.303Z,17.37
2019-01-18T20:22:40.011Z,17.12
2019-01-18T20:25:33.742Z,16.52
2019-01-18T20:28:37.539Z,17.35
2019-01-18T20:31:50.622Z,15.98
2019-01-18T20:34:49.039Z,16.80
2019-01-18T20:37:55.498Z,16.80
2019-01-18T20:41:16.536Z,16.35
2019-01-18T20:44:11.139Z,15.88
2019-01-18T20:47:12.994Z,17.32
2019-01-18T20:50:06.535Z,17.42
2019-01-18T20:53:11.164Z,16.87
2019-01-18T20:56:15.759Z,17.85
2019-01-18T20:59:21.598Z,16.62
2019-01-18T21:02:11.790Z,17.90
2019-01-18T21:05:20.163Z,18.30
2019-01-18T21:08:27.531Z,17.07
2019-01-18T21:11:25.184Z,22.52
2019-01-18T21:14:35.289Z,18.75
2019-01-18T21:17:52.690Z,16.27
2019-01-18T21:21:08.644Z,17.57
2019-01-18T21:24:23.748Z,19.60
2019-01-18T21:27:25.343Z,19.12
2019-01-18T21:30:44.683Z,17.52
2019-01-18T21:33:45.646Z,19.00
2019-01-18T21:37:10.983Z,16.45
2019-01-18T21:40:00.716Z,14.25
2019-01-18T21:43:10.126Z,18.52
2019-01-18T21:46:19.280Z,16.90
2019-01-18T21:49:17.112Z,16.20
2019-01-18T21:52:17.735Z,16.57
2019-01-18T21:55:22.565Z,15.40
2019-01-18T21:58:36.221Z,16.27
2019-01-18T22:01:36.840Z,16.17
2019-01-18T22:04:50.135Z,18.50
2019-01-18T22:07:50.792Z,16.10
2019-01-18T22:10:38.917Z,16.52
2019-01-18T22:13:36.501Z,18.77
2019-01-18T22:16:33.017Z,16.85
2019-01-18T22:19:51.341Z,17.23
2019-01-18T22:22:50.105Z,16.32
2019-01-18T22:25:45.545Z,17.57
2019-01-18T22:29:04.849Z,17.27
2019-01-18T22:32:09.318Z,19.12
2019-01-18T22:35:00.989Z,16.60
2019-01-18T22:37:55.478Z,15.98
2019-01-18T22:40:50.711Z,18.45
2019-01-18T22:43:30.840Z,16.82
2019-01-18T22:46:22.503Z,18.40
2019-01-18T22:49:27.310Z,15.32
2019-01-18T22:52:34.670Z,16.73
2019-01-18T22:55:54.257Z,17.65
2019-01-18T22:58:39.212Z,18.00
2019-01-18T23:01:34.128Z,15.83
2019-01-18T23:04:45.200Z,17.40
2019-01-18T23:07:46.338Z,14.47
2019-01-18T23:11:04.896Z,17.02
2019-01-18T23:14:14.653Z,15.45
2019-01-18T23:17:13.595Z,17.45
2019-01-18T23:20:25.405Z,14.83
2019-01-18T23:23:31.675Z,14.50
2019-01-18T23:26:40.421Z,15.98
2019-01-18T23:29:45.788Z,14.98
2019-01-18T23:32:35.519Z,17.05
2019-01-18T23:35:19.468Z,15.23
2019-01-18T23:38:09.277Z,14.23
2019-01-18T23:41:18.337Z,15.35
2019-01-18T23:44:24.662Z,16.20
2019-01-18T23:47:28.551Z,13.55
2019-01-18T23:50:37.618Z,15.63
2019-01-18T23:53:34.981Z,14.43
2019-01-18T23:56:44.380Z,15.85
2019-01-18T23:59:22.231Z,16.07
